Time;durP1;ratioP1;P1;durP2;ratioP2;P2;SDS_P1;SDS_P2;PMS_P1;PMS_P2;Temp;Humidity;BMP_temperature;BMP_pressure;BME280_temperature;BME280_humidity;BME280_pressure;Samples;Min_cycle;Max_cycle;Signal;HPM_P1;HPM_P2
2022/11/05 00:09:28;;;;;;;10.27;4.07;;;6.50;99.90;;;;;;4981781;28;37834;-75
2022/11/05 00:17:08;;;;;;;9.17;3.23;;;6.10;99.90;;;;;;4988570;28;37830;-76
2022/11/05 00:19:35;;;;;;;4.83;2.70;;;6.10;99.90;;;;;;4992091;28;36552;-75
2022/11/05 00:27:33;;;;;;;7.40;2.97;;;6.20;99.90;;;;;;4981828;28;49669;-76
2022/11/05 00:29:59;;;;;;;4.57;2.00;;;6.20;99.90;;;;;;4970952;28;37860;-75
2022/11/05 00:32:25;;;;;;;7.03;1.97;;;6.20;99.90;;;;;;4982710;28;38513;-75
2022/11/05 00:34:54;;;;;;;10.33;2.30;;;6.20;99.90;;;;;;4967247;28;36917;-75
2022/11/05 00:37:20;;;;;;;6.00;2.30;;;6.20;99.90;;;;;;4982157;28;36644;-75
2022/11/05 00:39:46;;;;;;;7.17;2.50;;;6.10;99.90;;;;;;4970801;28;38098;-74
2022/11/05 00:45:00;;;;;;;7.63;2.60;;;6.00;99.90;;;;;;4985589;28;39712;-75
2022/11/05 00:50:11;;;;;;;4.47;2.20;;;6.00;99.90;;;;;;4986212;28;39680;-75
2022/11/05 00:52:55;;;;;;;8.47;2.37;;;6.00;99.90;;;;;;4969330;28;37444;-76
2022/11/05 00:55:42;;;;;;;9.07;2.77;;;6.00;99.90;;;;;;4990661;28;37837;-75
2022/11/05 00:58:11;;;;;;;6.77;1.83;;;6.00;99.90;;;;;;4972733;28;35976;-75
2022/11/05 01:00:39;;;;;;;7.77;3.07;;;5.90;99.90;;;;;;4986725;28;38930;-75
2022/11/05 01:03:09;;;;;;;11.57;3.00;;;5.90;99.90;;;;;;4990205;28;38140;-75
2022/11/05 01:05:41;;;;;;;12.30;2.57;;;5.80;99.90;;;;;;4977438;28;36752;-76
2022/11/05 01:08:09;;;;;;;7.03;2.20;;;5.80;99.90;;;;;;4992568;28;38226;-75
2022/11/05 01:10:55;;;;;;;9.23;2.40;;;5.80;99.90;;;;;;4992596;28;40049;-75
2022/11/05 01:13:24;;;;;;;7.00;2.67;;;5.80;99.90;;;;;;4987827;28;39661;-75
2022/11/05 01:15:51;;;;;;;6.67;2.13;;;5.80;99.90;;;;;;4972520;28;38286;-76
2022/11/05 01:18:19;;;;;;;8.13;2.73;;;5.80;99.90;;;;;;4972118;28;37343;-75
2022/11/05 01:20:45;;;;;;;5.30;2.30;;;5.90;99.90;;;;;;4966932;28;37538;-76
2022/11/05 01:23:11;;;;;;;8.23;2.97;;;5.90;99.90;;;;;;4975551;28;38384;-76
2022/11/05 01:25:38;;;;;;;5.70;2.70;;;5.90;99.90;;;;;;4975207;28;36907;-76
2022/11/05 01:28:08;;;;;;;7.83;3.13;;;5.90;99.90;;;;;;4970225;28;35112;-76
2022/11/05 01:30:35;;;;;;;8.83;3.73;;;5.90;99.90;;;;;;4961292;28;47029;-76
2022/11/05 01:33:02;;;;;;;9.07;2.63;;;6.00;99.90;;;;;;4982651;28;38180;-76
2022/11/05 01:35:28;;;;;;;7.53;3.30;;;6.10;99.90;;;;;;4964876;28;38069;-76
2022/11/05 01:37:54;;;;;;;9.83;3.00;;;6.10;99.90;;;;;;4949340;28;35801;-76
2022/11/05 01:40:23;;;;;;;7.40;2.70;;;6.00;99.90;;;;;;4947507;28;37473;-76
2022/11/05 01:42:49;;;;;;;5.87;2.50;;;5.90;99.90;;;;;;4960760;28;37484;-76
2022/11/05 01:45:22;;;;;;;7.23;2.50;;;5.80;99.90;;;;;;4983618;28;38167;-76
2022/11/05 01:47:52;;;;;;;7.00;2.63;;;5.90;99.90;;;;;;4983232;28;36756;-76
2022/11/05 01:50:36;;;;;;;4.80;2.30;;;5.80;99.90;;;;;;4968069;28;38138;-76
2022/11/05 01:53:13;;;;;;;5.23;2.23;;;5.90;99.90;;;;;;4967611;28;38330;-76
2022/11/05 01:55:48;;;;;;;7.97;3.30;;;5.80;99.90;;;;;;4991362;28;47345;-76
2022/11/05 01:58:19;;;;;;;7.23;2.97;;;5.80;99.90;;;;;;4986705;28;35610;-76
2022/11/05 02:03:23;;;;;;;9.67;2.80;;;5.90;99.90;;;;;;5100001;23;20800;-79
2022/11/05 02:05:51;;;;;;;10.17;3.47;;;5.90;99.90;;;;;;4973956;28;37313;-79
2022/11/05 02:08:46;;;;;;;10.07;2.90;;;5.90;99.90;;;;;;4969961;28;37267;-79
2022/11/05 02:11:15;;;;;;;8.17;3.30;;;6.00;99.90;;;;;;4961947;28;37805;-80
2022/11/05 02:13:41;;;;;;;8.53;2.77;;;6.10;99.90;;;;;;4985741;28;37909;-79
2022/11/05 02:16:13;;;;;;;5.63;3.10;;;6.20;99.90;;;;;;4968121;28;36789;-79
2022/11/05 02:19:12;;;;;;;6.00;3.45;;;6.40;99.90;;;;;;4980018;28;37476;-78
2022/11/05 02:21:57;;;;;;;7.47;3.30;;;6.60;99.90;;;;;;4988923;28;47282;-79
2022/11/05 02:24:39;;;;;;;7.73;3.03;;;6.70;99.90;;;;;;4970045;28;37681;-79
2022/11/05 02:27:10;;;;;;;8.25;3.00;;;6.80;99.90;;;;;;4983697;28;37404;-79
2022/11/05 02:29:58;;;;;;;5.50;2.03;;;6.80;99.90;;;;;;4988475;28;36315;-79
2022/11/05 02:32:50;;;;;;;4.93;2.13;;;6.80;99.90;;;;;;4978762;28;38747;-79
2022/11/05 02:35:33;;;;;;;9.93;2.57;;;6.60;99.90;;;;;;4982779;28;37968;-79
2022/11/05 02:38:15;;;;;;;7.72;2.45;;;6.50;99.90;;;;;;4966939;28;39352;-80
2022/11/05 02:41:20;;;;;;;8.73;2.67;;;6.40;99.90;;;;;;4975869;28;46948;-79
2022/11/05 02:44:13;;;;;;;6.77;2.60;;;6.30;99.90;;;;;;4989115;28;47166;-80
2022/11/05 02:46:43;;;;;;;8.80;2.37;;;6.20;99.90;;;;;;4971728;28;48112;-79
2022/11/05 02:49:28;;;;;;;7.77;2.50;;;6.10;99.90;;;;;;4971006;28;37291;-79
2022/11/05 02:52:01;;;;;;;8.73;2.97;;;6.10;99.90;;;;;;4969627;28;37415;-79
2022/11/05 02:54:47;;;;;;;6.80;2.43;;;6.10;99.90;;;;;;4969378;28;46614;-79
2022/11/05 02:57:13;;;;;;;8.40;2.40;;;6.10;99.90;;;;;;4963387;28;40008;-79
2022/11/05 02:59:42;;;;;;;5.33;2.43;;;6.10;99.90;;;;;;4975790;28;40050;-79
2022/11/05 03:02:08;;;;;;;6.47;2.10;;;6.10;99.90;;;;;;4984893;28;37023;-79
2022/11/05 03:04:34;;;;;;;6.97;2.60;;;6.20;99.90;;;;;;4968319;28;41877;-79
2022/11/05 03:07:39;;;;;;;6.43;3.10;;;6.30;99.90;;;;;;4976331;28;38681;-79
2022/11/05 03:10:43;;;;;;;7.97;3.67;;;6.40;99.90;;;;;;4976230;28;47158;-79
2022/11/05 03:13:26;;;;;;;7.37;2.97;;;6.50;99.90;;;;;;4973922;28;36409;-79
2022/11/05 03:16:04;;;;;;;7.67;2.30;;;6.60;99.90;;;;;;4984832;28;39823;-79
2022/11/05 03:18:44;;;;;;;7.80;3.13;;;6.70;99.90;;;;;;4966621;28;46877;-80
2022/11/05 03:21:29;;;;;;;4.23;2.40;;;6.90;99.90;;;;;;4968512;28;38352;-79
2022/11/05 03:24:07;;;;;;;7.20;1.80;;;7.10;99.90;;;;;;4973065;28;36276;-79
2022/11/05 03:26:55;;;;;;;2.83;1.43;;;7.20;99.90;;;;;;4965699;28;47311;-79
2022/11/05 03:29:31;;;;;;;3.43;2.07;;;7.40;99.90;;;;;;4980167;28;38474;-79
2022/11/05 03:32:01;;;;;;;1.83;0.80;;;7.60;99.90;;;;;;4984421;28;36915;-79
2022/11/05 03:34:32;;;;;;;1.83;0.70;;;7.60;99.90;;;;;;4970055;28;38484;-79
2022/11/05 03:37:00;;;;;;;0.80;0.80;;;7.70;99.90;;;;;;4962229;28;39088;-80
2022/11/05 03:39:45;;;;;;;2.33;0.80;;;7.70;99.90;;;;;;4972392;28;38131;-80
2022/11/05 03:42:15;;;;;;;2.70;0.83;;;7.70;99.90;;;;;;4974441;28;38852;-79
2022/11/05 03:44:49;;;;;;;4.23;1.03;;;7.70;99.90;;;;;;4959110;28;36256;-79
2022/11/05 03:47:23;;;;;;;2.47;0.77;;;7.70;99.90;;;;;;4968694;28;39535;-80
2022/11/05 03:49:53;;;;;;;3.07;1.10;;;7.80;99.90;;;;;;4982749;28;38740;-78
2022/11/05 03:52:25;;;;;;;4.67;1.03;;;7.80;99.90;;;;;;4970197;28;37556;-79
2022/11/05 03:54:51;;;;;;;2.00;0.87;;;7.80;99.90;;;;;;4967791;28;36197;-79
2022/11/05 03:57:25;;;;;;;3.70;1.10;;;7.90;99.90;;;;;;4965963;28;39261;-78
2022/11/05 03:59:51;;;;;;;0.80;0.80;;;7.80;99.90;;;;;;4980964;28;38854;-79
2022/11/05 04:02:21;;;;;;;2.93;0.90;;;7.80;99.90;;;;;;4981198;28;38141;-79
2022/11/05 04:04:47;;;;;;;2.70;1.10;;;7.70;99.90;;;;;;4971100;28;36910;-79
2022/11/05 04:17:05;;;;;;;3.60;1.07;;;7.10;99.90;;;;;;4980055;28;38023;-79
2022/11/05 04:18:16;;;;;;;2.67;1.10;;;7.00;99.90;;;;;;4977186;28;37982;-78
2022/11/05 04:26:11;;;;;;;1.57;1.00;;;6.80;99.90;;;;;;4978030;28;37187;-78
2022/11/05 04:31:22;;;;;;;1.83;1.20;;;7.10;99.90;;;;;;4983676;28;39446;-78
2022/11/05 04:33:48;;;;;;;6.40;1.77;;;7.20;99.90;;;;;;4967278;28;38931;-79
2022/11/05 04:36:14;;;;;;;2.30;1.40;;;7.10;99.90;;;;;;4982379;28;37301;-78
2022/11/05 04:38:40;;;;;;;1.90;1.40;;;7.00;99.90;;;;;;4987056;28;38463;-78
2022/11/05 04:41:14;;;;;;;3.00;1.57;;;7.00;99.90;;;;;;4993114;28;39695;-79
2022/11/05 04:43:41;;;;;;;1.47;1.20;;;7.00;99.90;;;;;;4981755;28;38885;-79
2022/11/05 04:46:07;;;;;;;3.53;1.77;;;6.90;99.90;;;;;;4974483;28;38684;-79
2022/11/05 04:48:33;;;;;;;4.53;1.77;;;7.00;99.90;;;;;;4988543;28;39182;-79
2022/11/05 04:50:59;;;;;;;5.47;2.50;;;7.10;99.90;;;;;;4987243;28;38540;-79
2022/11/05 04:53:25;;;;;;;6.40;1.83;;;7.10;99.90;;;;;;4995215;28;38143;-79
2022/11/05 04:55:51;;;;;;;6.37;2.43;;;7.20;99.90;;;;;;4986115;28;38815;-78
2022/11/05 04:58:18;;;;;;;7.23;2.47;;;7.10;99.90;;;;;;4970473;28;39521;-79
2022/11/05 05:00:44;;;;;;;13.30;3.10;;;7.10;99.90;;;;;;4987786;28;38579;-79
2022/11/05 05:03:10;;;;;;;5.03;2.30;;;7.10;99.90;;;;;;4972176;28;40017;-79
2022/11/05 05:05:36;;;;;;;5.83;2.80;;;7.10;99.90;;;;;;4953075;28;37687;-78
2022/11/05 05:08:04;;;;;;;7.30;3.33;;;7.10;99.90;;;;;;4951076;28;39570;-79
2022/11/05 05:10:31;;;;;;;9.83;4.10;;;7.20;99.90;;;;;;4992722;28;37676;-79
2022/11/05 05:12:57;;;;;;;9.13;4.93;;;7.20;99.90;;;;;;4985940;28;38836;-79
2022/11/05 05:15:23;;;;;;;6.87;4.63;;;7.30;99.90;;;;;;4975154;28;38441;-78
2022/11/05 05:17:51;;;;;;;7.93;6.00;;;7.30;99.90;;;;;;4980705;28;39691;-79
2022/11/05 05:23:02;;;;;;;16.53;8.53;;;7.40;99.90;;;;;;4980044;28;39492;-79
2022/11/05 05:25:29;;;;;;;18.43;8.90;;;7.30;99.90;;;;;;4966524;28;47469;-79
2022/11/05 05:27:56;;;;;;;12.73;9.27;;;7.30;99.90;;;;;;4988154;28;39573;-79
2022/11/05 05:30:23;;;;;;;20.20;10.33;;;7.40;99.90;;;;;;4959872;28;40020;-79
2022/11/05 05:32:49;;;;;;;17.63;9.67;;;7.40;99.90;;;;;;4962653;28;40301;-79
2022/11/05 05:35:16;;;;;;;18.90;11.47;;;7.40;99.90;;;;;;4979704;28;37256;-79
2022/11/05 05:37:43;;;;;;;20.43;14.07;;;7.40;99.90;;;;;;4982681;28;39919;-79
2022/11/05 05:40:09;;;;;;;22.50;12.73;;;7.40;99.90;;;;;;4977474;28;39076;-79
2022/11/05 05:42:36;;;;;;;23.60;13.83;;;7.40;99.90;;;;;;4978631;28;37147;-79
2022/11/05 05:45:02;;;;;;;21.57;13.83;;;7.30;99.90;;;;;;4983566;28;37921;-79
2022/11/05 05:47:28;;;;;;;20.70;13.00;;;7.30;99.90;;;;;;4980658;28;39520;-80
2022/11/05 05:49:54;;;;;;;20.10;13.60;;;7.30;99.90;;;;;;4978430;28;39542;-80
2022/11/05 05:52:20;;;;;;;21.73;12.63;;;7.20;99.90;;;;;;4951655;28;38879;-80
2022/11/05 05:54:46;;;;;;;23.77;14.93;;;7.20;99.90;;;;;;4974251;28;35921;-80
2022/11/05 05:57:12;;;;;;;21.43;15.33;;;7.20;99.90;;;;;;4971861;28;38862;-79
2022/11/05 05:59:39;;;;;;;20.57;13.93;;;7.20;99.90;;;;;;4964684;28;37182;-79
2022/11/05 06:02:05;;;;;;;17.50;13.47;;;7.30;99.90;;;;;;4962430;28;38545;-79
2022/11/05 06:04:31;;;;;;;22.03;13.70;;;7.30;99.90;;;;;;4977857;28;36361;-79
2022/11/05 06:06:57;;;;;;;23.10;15.63;;;7.40;99.90;;;;;;4948768;28;37514;-79
2022/11/05 06:09:23;;;;;;;19.07;14.73;;;7.40;99.90;;;;;;4977825;28;39072;-79
2022/11/05 06:11:49;;;;;;;20.70;13.70;;;7.40;99.90;;;;;;4972263;28;38242;-80
2022/11/05 06:14:15;;;;;;;19.60;13.67;;;7.40;99.90;;;;;;4978859;28;37872;-79
2022/11/05 06:16:41;;;;;;;22.70;16.40;;;7.40;99.90;;;;;;4985975;28;38633;-79
2022/11/05 06:19:07;;;;;;;21.20;13.53;;;7.50;99.90;;;;;;4964628;28;39668;-78
2022/11/05 06:21:34;;;;;;;22.20;14.47;;;7.50;99.90;;;;;;4960254;28;39952;-79
2022/11/05 06:24:01;;;;;;;21.60;14.53;;;7.50;99.90;;;;;;4967525;28;37062;-80
2022/11/05 06:26:27;;;;;;;25.97;15.00;;;7.60;99.90;;;;;;4989803;28;48508;-79
2022/11/05 06:28:54;;;;;;;23.53;16.23;;;7.50;99.90;;;;;;4962111;28;39999;-79
2022/11/05 06:31:20;;;;;;;24.23;17.17;;;7.50;99.90;;;;;;4981387;28;39455;-78
2022/11/05 06:33:46;;;;;;;25.07;14.57;;;7.50;99.90;;;;;;4958312;28;38558;-79
2022/11/05 06:36:17;;;;;;;24.57;18.90;;;7.50;99.90;;;;;;4965037;28;39221;-79
2022/11/05 06:38:43;;;;;;;25.60;16.03;;;7.50;99.90;;;;;;4985419;28;38605;-79
2022/11/05 06:41:09;;;;;;;20.63;15.17;;;7.50;99.90;;;;;;4989689;28;37986;-79
2022/11/05 06:43:36;;;;;;;20.23;16.40;;;7.50;99.90;;;;;;4959065;28;38090;-79
2022/11/05 06:46:02;;;;;;;22.93;15.07;;;7.50;99.90;;;;;;4955468;28;40261;-79
2022/11/05 06:48:28;;;;;;;20.33;14.40;;;7.40;99.90;;;;;;4942619;28;38874;-79
2022/11/05 06:50:54;;;;;;;19.43;13.87;;;7.40;99.90;;;;;;4965918;28;37314;-80
2022/11/05 06:53:20;;;;;;;19.80;14.73;;;7.40;99.90;;;;;;4970382;28;37912;-79
2022/11/05 06:55:47;;;;;;;25.03;13.53;;;7.30;99.90;;;;;;4977202;28;38565;-79
2022/11/05 06:58:13;;;;;;;21.13;15.83;;;7.30;99.90;;;;;;4981782;28;38495;-79
2022/11/05 07:00:40;;;;;;;28.20;19.13;;;7.30;99.90;;;;;;4971095;28;37345;-80
2022/11/05 07:03:07;;;;;;;22.37;15.87;;;7.30;99.90;;;;;;4971381;28;39140;-80
2022/11/05 07:05:37;;;;;;;20.47;14.23;;;7.30;99.90;;;;;;4972392;28;39499;-79
2022/11/05 07:08:03;;;;;;;24.90;13.73;;;7.30;99.90;;;;;;4962307;28;39243;-79
2022/11/05 07:10:29;;;;;;;19.53;14.50;;;7.30;99.90;;;;;;4982857;28;37452;-78
2022/11/05 07:12:55;;;;;;;17.10;12.47;;;7.30;99.90;;;;;;5000070;28;37355;-80
2022/11/05 07:15:25;;;;;;;18.87;13.77;;;7.30;99.90;;;;;;4989976;28;38298;-79
2022/11/05 07:17:58;;;;;;;16.37;13.10;;;7.20;99.90;;;;;;4986181;28;38821;-79
2022/11/05 07:20:25;;;;;;;17.33;13.20;;;7.30;99.90;;;;;;4976097;28;36580;-80
2022/11/05 07:23:00;;;;;;;18.10;12.93;;;7.20;99.90;;;;;;4967186;28;36697;-80
2022/11/05 07:25:26;;;;;;;19.80;12.20;;;7.30;99.90;;;;;;4961027;28;38893;-80
2022/11/05 07:27:52;;;;;;;17.67;11.37;;;7.30;99.90;;;;;;4964218;28;37357;-80
2022/11/05 07:30:18;;;;;;;18.00;13.30;;;7.40;99.90;;;;;;4966261;28;37966;-80
2022/11/05 07:32:44;;;;;;;15.20;11.77;;;7.40;99.90;;;;;;4966603;28;38073;-80
2022/11/05 07:37:50;;;;;;;24.97;13.67;;;7.50;99.90;;;;;;5080260;23;20058;-81
2022/11/05 07:40:18;;;;;;;24.10;13.67;;;7.60;99.90;;;;;;4979408;28;36608;-81
2022/11/05 07:42:46;;;;;;;17.67;10.40;;;7.60;99.90;;;;;;4996689;28;37647;-81
2022/11/05 07:45:13;;;;;;;17.57;11.87;;;7.70;99.90;;;;;;4990631;28;37285;-79
2022/11/05 07:47:49;;;;;;;17.33;10.37;;;7.80;99.90;;;;;;5004157;28;38436;-81
2022/11/05 07:50:16;;;;;;;17.53;11.00;;;7.80;99.90;;;;;;4974877;28;38102;-80
2022/11/05 07:52:43;;;;;;;18.40;11.60;;;7.90;99.90;;;;;;4969962;28;36146;-80
2022/11/05 07:55:10;;;;;;;16.93;11.60;;;8.00;99.90;;;;;;4975333;28;40019;-81
2022/11/05 07:57:44;;;;;;;13.53;10.13;;;8.10;99.90;;;;;;4980087;28;37313;-81
2022/11/05 08:00:13;;;;;;;16.77;9.53;;;8.30;99.90;;;;;;4998100;28;37530;-82
2022/11/05 08:03:12;;;;;;;11.53;9.10;;;8.30;99.90;;;;;;4989649;28;36370;-81
2022/11/05 08:05:40;;;;;;;12.60;8.73;;;8.40;99.90;;;;;;5001735;28;48071;-81
2022/11/05 08:08:30;;;;;;;17.50;8.93;;;8.50;99.90;;;;;;5051719;23;37548;-82
2022/11/05 08:11:08;;;;;;;15.00;9.40;;;8.60;99.90;;;;;;4977789;28;37798;-80
2022/11/05 08:13:35;;;;;;;15.77;7.70;;;8.70;99.90;;;;;;4968043;28;47198;-81
2022/11/05 08:16:01;;;;;;;13.47;6.90;;;8.80;99.90;;;;;;4970000;28;37618;-80
2022/11/05 08:18:32;;;;;;;14.90;7.37;;;8.80;99.90;;;;;;4966123;28;38329;-79
2022/11/05 08:21:00;;;;;;;12.33;7.73;;;8.90;99.90;;;;;;4960097;28;37054;-79
2022/11/05 08:23:27;;;;;;;12.37;7.30;;;8.90;99.90;;;;;;4960199;28;39243;-80
2022/11/05 08:25:55;;;;;;;8.77;7.23;;;9.00;99.90;;;;;;4964377;28;37823;-79
2022/11/05 08:28:22;;;;;;;13.00;6.90;;;9.10;99.90;;;;;;4966128;28;37324;-79
2022/11/05 08:30:50;;;;;;;8.77;6.13;;;9.30;99.90;;;;;;4970077;28;37863;-80
2022/11/05 08:33:17;;;;;;;11.90;5.93;;;9.30;99.90;;;;;;4973634;28;37437;-81
2022/11/05 08:35:44;;;;;;;11.10;5.40;;;9.40;99.90;;;;;;4968489;28;39185;-79
2022/11/05 08:38:14;;;;;;;10.50;6.03;;;9.40;99.90;;;;;;4963062;28;39821;-78
2022/11/05 08:40:42;;;;;;;10.40;5.53;;;9.40;99.90;;;;;;4964469;28;37589;-80
2022/11/05 08:43:11;;;;;;;10.57;5.80;;;9.50;99.90;;;;;;4964110;28;36015;-78
2022/11/05 08:45:37;;;;;;;10.07;5.03;;;9.60;99.90;;;;;;4965906;28;38163;-78
2022/11/05 08:48:05;;;;;;;7.57;4.33;;;9.70;99.90;;;;;;4960164;28;37756;-79
2022/11/05 08:50:31;;;;;;;8.23;4.97;;;9.70;99.90;;;;;;4958187;28;36230;-79
2022/11/05 08:52:58;;;;;;;12.90;4.93;;;9.80;99.90;;;;;;4974800;28;35947;-80
2022/11/05 08:55:24;;;;;;;10.30;5.00;;;9.80;99.90;;;;;;4956829;28;38893;-80
2022/11/05 08:57:55;;;;;;;9.67;5.03;;;9.80;99.90;;;;;;4965105;28;38265;-79
2022/11/05 09:00:21;;;;;;;14.90;5.20;;;9.80;99.90;;;;;;4960524;28;37393;-78
2022/11/05 09:02:47;;;;;;;9.83;4.40;;;9.90;99.90;;;;;;4961536;28;37300;-80
2022/11/05 09:05:13;;;;;;;9.50;4.63;;;9.90;99.90;;;;;;4960001;28;38650;-79
2022/11/05 09:07:39;;;;;;;6.23;4.33;;;10.00;99.90;;;;;;4982726;28;38186;-79
2022/11/05 09:10:06;;;;;;;8.43;4.40;;;10.10;99.90;;;;;;4988479;28;37699;-79
2022/11/05 09:12:32;;;;;;;8.63;4.20;;;10.20;99.90;;;;;;5004266;28;36159;-77
2022/11/05 09:14:58;;;;;;;9.93;4.87;;;10.20;99.90;;;;;;5004140;28;39661;-78
2022/11/05 09:17:24;;;;;;;8.87;4.20;;;10.30;99.90;;;;;;4987071;28;37476;-79
2022/11/05 09:19:50;;;;;;;5.93;3.77;;;10.30;99.90;;;;;;5002409;28;38307;-80
2022/11/05 09:22:16;;;;;;;6.63;3.70;;;10.20;99.90;;;;;;5002511;28;36202;-78
2022/11/05 09:24:42;;;;;;;8.50;4.20;;;10.20;99.90;;;;;;4993439;28;37631;-78
2022/11/05 09:27:10;;;;;;;6.33;3.50;;;10.30;99.90;;;;;;5011171;28;38545;-77
2022/11/05 09:29:36;;;;;;;9.63;3.87;;;10.30;99.90;;;;;;5009101;28;36964;-79
2022/11/05 09:32:02;;;;;;;10.35;4.15;;;10.40;99.90;;;;;;5003249;28;36781;-78
2022/11/05 09:34:28;;;;;;;6.00;3.90;;;10.50;99.90;;;;;;5022941;28;39744;-81
2022/11/05 09:36:56;;;;;;;7.18;3.88;;;10.50;99.90;;;;;;5023308;28;37244;-79
2022/11/05 09:39:22;;;;;;;8.52;4.20;;;10.50;99.90;;;;;;5033833;28;38522;-81
2022/11/05 09:41:50;;;;;;;8.73;4.72;;;10.60;99.90;;;;;;5034593;28;38376;-80
2022/11/05 09:44:21;;;;;;;8.68;4.50;;;10.60;99.90;;;;;;5036111;28;39698;-80
2022/11/05 09:46:59;;;;;;;8.57;4.13;;;10.60;99.90;;;;;;5036595;28;39982;-81
2022/11/05 09:49:46;;;;;;;11.87;4.10;;;10.70;99.90;;;;;;5020245;28;38121;-81
2022/11/05 09:52:20;;;;;;;8.93;4.13;;;10.60;99.90;;;;;;5027672;28;34482;-82
2022/11/05 09:54:49;;;;;;;8.80;4.20;;;10.70;99.90;;;;;;5023057;28;38601;-80
2022/11/05 09:57:24;;;;;;;10.03;4.60;;;10.70;99.90;;;;;;5002352;28;38368;-79
2022/11/05 09:59:56;;;;;;;9.37;4.47;;;10.80;99.90;;;;;;5028338;28;36784;-81
2022/11/05 10:02:30;;;;;;;13.68;4.70;;;10.80;99.90;;;;;;5009474;28;37182;-79
2022/11/05 10:05:01;;;;;;;8.67;4.03;;;10.80;99.90;;;;;;5025498;28;39152;-78
2022/11/05 10:07:30;;;;;;;10.10;4.13;;;10.90;99.90;;;;;;5004161;28;37336;-79
2022/11/05 10:10:01;;;;;;;6.47;3.70;;;10.90;99.90;;;;;;5027240;28;38903;-80
2022/11/05 10:12:36;;;;;;;7.40;3.75;;;11.00;99.90;;;;;;5008448;28;36687;-79
2022/11/05 10:15:06;;;;;;;8.50;4.10;;;10.90;99.90;;;;;;5023117;28;36537;-78
2022/11/05 10:17:37;;;;;;;7.90;3.92;;;10.80;99.90;;;;;;4993681;28;47268;-79
2022/11/05 10:20:34;;;;;;;7.40;3.90;;;10.80;99.90;;;;;;4996489;28;35646;-79
2022/11/05 10:23:09;;;;;;;11.47;4.77;;;10.80;99.90;;;;;;5001692;28;50164;-79
2022/11/05 10:25:40;;;;;;;9.68;4.00;;;10.80;99.90;;;;;;5011929;28;47053;-79
2022/11/05 10:28:08;;;;;;;10.52;3.97;;;10.80;99.90;;;;;;4992033;28;37425;-79
2022/11/05 10:30:34;;;;;;;6.30;3.53;;;10.90;99.90;;;;;;4989478;28;38029;-79
2022/11/05 10:33:04;;;;;;;7.25;3.17;;;11.00;99.90;;;;;;5009044;28;36319;-79
2022/11/05 10:35:33;;;;;;;5.97;3.13;;;11.10;99.90;;;;;;5007087;28;48173;-79
2022/11/05 10:38:01;;;;;;;5.00;2.90;;;11.20;99.90;;;;;;5010818;28;39078;-79
2022/11/05 10:40:41;;;;;;;6.83;3.30;;;11.30;99.90;;;;;;5001635;28;37819;-78
2022/11/05 10:43:34;;;;;;;5.82;2.92;;;11.40;99.90;;;;;;5009859;28;38288;-78
2022/11/05 10:46:21;;;;;;;10.30;3.57;;;11.50;99.90;;;;;;5002147;28;38365;-78
2022/11/05 10:49:22;;;;;;;5.47;3.17;;;11.50;99.90;;;;;;4987035;28;46872;-78
2022/11/05 10:51:55;;;;;;;8.32;3.17;;;11.80;99.90;;;;;;4938013;28;47969;-79
2022/11/05 10:54:23;;;;;;;;;;;11.80;99.90;;;;;;4969654;28;36697;-79
2022/11/05 10:56:49;;;;;;;8.32;3.42;;;11.80;99.90;;;;;;5002416;28;40099;-79
2022/11/05 10:59:27;;;;;;;6.15;2.40;;;11.90;99.90;;;;;;4998713;28;39177;-78
2022/11/05 11:02:21;;;;;;;8.40;3.03;;;11.80;99.90;;;;;;4983695;28;36829;-79
2022/11/05 11:07:25;;;;;;;8.23;2.55;;;11.80;99.90;;;;;;5398006;23;20053;-80
2022/11/05 11:09:55;;;;;;;8.02;2.22;;;11.90;99.90;;;;;;4993669;28;36679;-81
2022/11/05 11:12:23;;;;;;;5.18;2.88;;;11.90;99.90;;;;;;4991564;28;39173;-79
2022/11/05 11:15:00;;;;;;;12.30;3.30;;;11.80;99.90;;;;;;5000911;28;37121;-79
2022/11/05 11:17:29;;;;;;;10.40;3.45;;;11.70;99.90;;;;;;5004584;28;38421;-79
2022/11/05 11:20:31;;;;;;;5.50;2.72;;;11.70;99.90;;;;;;4988566;28;37690;-79
2022/11/05 11:23:11;;;;;;;5.60;2.55;;;11.70;99.90;;;;;;4927691;28;47122;-79
2022/11/05 11:25:50;;;;;;;9.65;3.10;;;11.60;99.90;;;;;;4982001;28;47472;-78
2022/11/05 11:28:26;;;;;;;6.22;2.83;;;11.60;99.90;;;;;;5005701;28;38537;-79
2022/11/05 11:31:02;;;;;;;13.40;3.40;;;11.60;99.90;;;;;;4993459;28;38711;-80
2022/11/05 11:33:29;;;;;;;7.00;3.20;;;11.70;99.90;;;;;;5003124;28;38027;-80
2022/11/05 11:35:56;;;;;;;6.30;3.42;;;11.70;99.90;;;;;;4990802;28;36833;-79
2022/11/05 11:38:25;;;;;;;5.18;3.33;;;11.70;99.90;;;;;;4982366;28;38243;-78
2022/11/05 11:41:00;;;;;;;9.45;3.40;;;11.80;99.90;;;;;;5007791;28;37241;-79
2022/11/05 11:43:29;;;;;;;9.65;3.20;;;11.80;99.90;;;;;;4988188;28;37245;-79
2022/11/05 11:45:56;;;;;;;10.27;3.40;;;11.90;99.90;;;;;;5002910;28;38521;-79
2022/11/05 11:48:28;;;;;;;8.32;3.10;;;12.00;99.90;;;;;;4999016;28;38697;-78
2022/11/05 11:50:56;;;;;;;7.50;3.28;;;12.00;99.90;;;;;;4986036;28;37232;-79
2022/11/05 11:53:29;;;;;;;7.85;3.67;;;11.90;99.90;;;;;;5008959;28;38261;-79
2022/11/05 11:55:56;;;;;;;;;;;11.90;99.90;;;;;;5011077;28;37937;-80
2022/11/05 11:58:34;;;;;;;8.27;3.53;;;11.80;99.90;;;;;;4991324;28;37420;-80
2022/11/05 12:01:17;;;;;;;11.38;4.07;;;11.80;99.90;;;;;;5009639;28;37848;-80
2022/11/05 12:03:50;;;;;;;9.82;4.25;;;11.70;99.90;;;;;;5010738;28;48388;-80
2022/11/05 12:06:32;;;;;;;8.38;4.82;;;11.70;99.90;;;;;;4991441;28;37518;-80
2022/11/05 12:09:18;;;;;;;7.63;4.70;;;11.70;99.90;;;;;;5007190;28;38752;-80
2022/11/05 12:11:56;;;;;;;8.25;4.30;;;11.70;99.90;;;;;;4986634;28;47025;-80
2022/11/05 12:14:56;;;;;;;11.80;4.57;;;11.70;99.90;;;;;;5004685;28;37827;-79
2022/11/05 12:17:39;;;;;;;9.95;4.10;;;11.70;99.90;;;;;;4995896;28;37475;-80
2022/11/05 12:20:43;;;;;;;9.38;4.15;;;11.80;99.90;;;;;;4993162;28;38402;-80
2022/11/05 12:23:51;;;;;;;10.77;4.05;;;11.70;99.90;;;;;;4987004;28;38705;-81
2022/11/05 12:26:38;;;;;;;7.30;3.97;;;11.70;99.90;;;;;;4974865;28;36937;-81
2022/11/05 12:29:07;;;;;;;7.10;3.58;;;11.70;99.90;;;;;;5014530;28;37135;-80
2022/11/05 12:32:09;;;;;;;9.20;3.60;;;11.70;99.90;;;;;;4991786;28;38026;-80
2022/11/05 12:34:48;;;;;;;9.35;3.90;;;11.70;99.90;;;;;;5009021;28;48951;-79
2022/11/05 12:37:35;;;;;;;7.45;3.78;;;11.70;99.90;;;;;;5008633;28;37990;-79
2022/11/05 12:40:40;;;;;;;7.47;3.67;;;11.70;99.90;;;;;;5010764;28;37428;-80
2022/11/05 12:43:30;;;;;;;8.00;3.88;;;11.70;99.90;;;;;;5005024;28;46874;-79
2022/11/05 12:46:09;;;;;;;8.45;4.10;;;11.70;99.90;;;;;;5009113;28;37955;-80
2022/11/05 12:48:35;;;;;;;12.82;4.57;;;11.70;99.90;;;;;;4993296;28;47180;-79
2022/11/05 12:51:31;;;;;;;7.72;4.05;;;11.70;99.90;;;;;;5006077;28;36922;-80
2022/11/05 12:54:09;;;;;;;11.52;4.18;;;11.60;99.90;;;;;;5008611;28;47712;-80
2022/11/05 12:56:43;;;;;;;8.52;4.13;;;11.70;99.90;;;;;;5010657;28;49101;-79
2022/11/05 12:59:26;;;;;;;12.32;4.00;;;11.70;99.90;;;;;;4991755;28;36332;-79
2022/11/05 13:02:17;;;;;;;7.70;3.72;;;11.70;99.90;;;;;;5011407;28;37714;-79
2022/11/05 13:04:54;;;;;;;7.50;3.83;;;11.80;99.90;;;;;;5003513;28;48555;-79
2022/11/05 13:07:27;;;;;;;17.48;4.40;;;11.70;99.90;;;;;;5016302;28;38133;-80
2022/11/05 13:10:04;;;;;;;7.93;3.80;;;11.70;99.90;;;;;;5009725;28;37247;-80
2022/11/05 13:12:35;;;;;;;10.50;3.78;;;11.70;99.90;;;;;;5009446;28;47216;-80
2022/11/05 13:15:24;;;;;;;9.68;3.47;;;11.70;99.90;;;;;;5014563;28;39636;-80
2022/11/05 13:17:58;;;;;;;7.25;3.78;;;11.60;99.90;;;;;;4997060;28;47367;-80
2022/11/05 13:20:38;;;;;;;10.38;4.28;;;11.60;99.90;;;;;;5028527;28;39031;-80
2022/11/05 13:23:30;;;;;;;7.30;3.72;;;11.60;99.90;;;;;;5022563;28;37947;-79
2022/11/05 13:26:15;;;;;;;14.32;4.88;;;11.50;99.90;;;;;;4997227;28;37607;-80
2022/11/05 13:28:47;;;;;;;8.82;4.22;;;11.50;99.90;;;;;;4988831;28;47168;-79
2022/11/05 13:31:20;;;;;;;10.45;4.50;;;11.40;99.90;;;;;;5019099;28;38146;-80
2022/11/05 13:33:49;;;;;;;10.85;4.05;;;11.40;99.90;;;;;;5020079;28;38725;-81
2022/11/05 13:39:25;;;;;;;9.43;3.92;;;11.40;99.90;;;;;;5018272;28;40264;-81
2022/11/05 13:42:28;;;;;;;10.15;4.05;;;11.50;99.90;;;;;;4993801;28;38393;-80
2022/11/05 13:45:15;;;;;;;11.43;3.85;;;11.40;99.90;;;;;;4978776;28;47249;-82
2022/11/05 13:48:00;;;;;;;11.20;4.22;;;11.50;99.90;;;;;;5009906;28;47028;-78
2022/11/05 13:50:50;;;;;;;10.20;3.53;;;11.60;99.90;;;;;;4988455;28;35761;-80
2022/11/05 13:53:52;;;;;;;9.43;4.07;;;11.60;99.90;;;;;;4989702;28;36866;-80
2022/11/05 13:56:29;;;;;;;10.02;4.35;;;11.50;99.90;;;;;;4983015;28;36280;-80
2022/11/05 13:59:25;;;;;;;18.17;4.97;;;11.50;99.90;;;;;;5022219;28;38770;-81
2022/11/05 14:02:00;;;;;;;14.80;4.97;;;11.50;99.90;;;;;;4993262;28;48292;-81
2022/11/05 14:04:32;;;;;;;10.77;4.15;;;11.50;99.90;;;;;;5024298;28;37161;-81
2022/11/05 14:07:18;;;;;;;11.27;4.88;;;11.50;99.90;;;;;;5000451;28;37410;-81
2022/11/05 14:09:51;;;;;;;10.23;4.15;;;11.50;99.90;;;;;;5002158;28;46813;-81
2022/11/05 14:12:23;;;;;;;8.55;4.63;;;11.60;99.90;;;;;;5010933;28;37299;-81